aviador You're here:

KSHN Decoded Metar

SHELTON in WA, USA
Report Time2017-07-23 05:53:00
UTC Time2017-07-23 06:49:25
Flight Rules vfr VFR
Wind270° at 06 kt
W.Decomp.*RWY 23: 5.6 kt HW 2.2 kt RCW
W.Rank270° ranks 11
Current wind is above 270° avg. (5.3)
Visibility9999 m
Phenomena:N/A
Clouds:N/A
Expected CloudBase > 1,200 ft AGL from Temp-Dew spread
CeilingNone
Temp20°C (ISA +6)
Dew Point17°C (83% RH)
QNH1019 hPa
Density Alt971 ft
Elevation269 ft
Report Wrong Elevation
Raw Report
METAR KSHN 230553Z AUTO 27006KT 10SM CLR 20/17 A3008 RMK AO2 SLP184
T02000167 10283 20200 51007=

Extra information for KSHN:More info

Metar Taf Metar & Taf Last 4 Metars F.Rules Stats Wind Profile Meteogram Temp Stats Airport Information Weather charts Add Link Nearby VenuesMetar ALERT Operation Metar Decoded Social comments

AIRNAV info for KSHN